createdAt,value
2017-10-11T00:00:50.687Z,15.40
2017-10-11T00:03:17.123Z,15.40
2017-10-11T00:05:43.557Z,15.40
2017-10-11T00:08:09.943Z,16.40
2017-10-11T00:10:36.425Z,16.37
2017-10-11T00:13:02.864Z,15.60
2017-10-11T00:15:30.116Z,15.10
2017-10-11T00:17:56.552Z,16.67
2017-10-11T00:20:23.076Z,14.27
2017-10-11T00:22:49.522Z,15.00
2017-10-11T00:25:15.909Z,15.07
2017-10-11T00:27:42.346Z,16.23
2017-10-11T00:30:08.826Z,16.57
2017-10-11T00:32:35.928Z,16.50
2017-10-11T00:35:02.516Z,15.83
2017-10-11T00:37:28.950Z,15.17
2017-10-11T00:39:55.388Z,14.43
2017-10-11T00:42:21.819Z,15.70
2017-10-11T00:44:48.255Z,17.40
2017-10-11T00:47:14.791Z,18.00
2017-10-11T00:49:41.902Z,18.40
2017-10-11T00:52:08.376Z,17.60
2017-10-11T00:54:34.811Z,17.70
2017-10-11T00:57:01.247Z,17.13
2017-10-11T00:59:27.682Z,16.93
2017-10-11T01:01:54.116Z,16.53
2017-10-11T01:04:20.556Z,16.60
2017-10-11T01:06:47.806Z,17.43
2017-10-11T01:09:14.240Z,16.40
2017-10-11T01:11:40.675Z,18.00
2017-10-11T01:14:07.056Z,15.93
2017-10-11T01:16:33.523Z,15.80
2017-10-11T01:18:59.965Z,15.37
2017-10-11T01:21:26.409Z,16.47
2017-10-11T01:23:53.670Z,16.90
2017-10-11T01:26:20.103Z,16.10
2017-10-11T01:28:46.538Z,16.30
2017-10-11T01:31:12.974Z,15.53
2017-10-11T01:33:39.409Z,15.80
2017-10-11T01:36:05.844Z,16.70
2017-10-11T01:38:32.277Z,15.10
2017-10-11T01:40:59.429Z,16.70
2017-10-11T01:43:25.877Z,15.03
2017-10-11T01:45:52.403Z,15.13
2017-10-11T01:48:18.835Z,15.57
2017-10-11T01:50:45.223Z,15.20
2017-10-11T01:53:11.721Z,16.57
2017-10-11T01:55:38.139Z,16.40
2017-10-11T01:58:05.413Z,15.40
2017-10-11T02:00:31.829Z,14.20
2017-10-11T02:02:58.215Z,14.47
2017-10-11T02:05:24.595Z,15.20
2017-10-11T02:07:51.029Z,16.50
2017-10-11T02:10:17.469Z,16.30
2017-10-11T02:12:43.901Z,17.40
2017-10-11T02:15:11.050Z,16.67
2017-10-11T02:17:37.485Z,16.00
2017-10-11T02:20:03.876Z,15.70
2017-10-11T02:22:30.343Z,14.40
2017-10-11T02:24:56.782Z,15.10
2017-10-11T02:27:23.327Z,15.10
2017-10-11T02:29:49.762Z,15.80
2017-10-11T02:32:16.914Z,14.70
2017-10-11T02:34:43.348Z,15.43
2017-10-11T02:37:09.785Z,15.20
2017-10-11T02:39:36.217Z,15.03
2017-10-11T02:42:02.653Z,14.30
2017-10-11T02:44:29.095Z,14.10
2017-10-11T02:46:55.521Z,13.80
2017-10-11T02:49:22.577Z,13.63
2017-10-11T02:51:49.006Z,14.83
2017-10-11T02:54:15.442Z,14.07
2017-10-11T02:56:41.858Z,13.60
2017-10-11T02:59:08.310Z,13.70
2017-10-11T03:01:34.695Z,13.63
2017-10-11T03:04:01.159Z,12.73
2017-10-11T03:06:28.331Z,13.10
2017-10-11T03:08:54.785Z,12.63
2017-10-11T03:11:21.200Z,11.90
2017-10-11T03:13:47.654Z,13.33
2017-10-11T03:16:14.071Z,14.03
2017-10-11T03:18:40.505Z,13.63
2017-10-11T03:21:06.940Z,14.60
2017-10-11T03:23:34.092Z,14.30
2017-10-11T03:26:00.530Z,14.50
2017-10-11T03:28:27.063Z,13.97
2017-10-11T03:30:53.499Z,14.20
2017-10-11T03:33:19.904Z,14.70
2017-10-11T03:35:46.367Z,14.27
2017-10-11T03:38:12.802Z,14.37
2017-10-11T03:40:39.903Z,15.90
2017-10-11T03:43:06.395Z,13.37
2017-10-11T03:45:32.826Z,14.60
2017-10-11T03:47:59.259Z,13.20
2017-10-11T03:50:25.712Z,14.70
2017-10-11T03:52:52.127Z,13.60
2017-10-11T03:55:18.562Z,13.60
2017-10-11T03:57:45.816Z,14.80
2017-10-11T04:00:12.255Z,13.30
2017-10-11T04:02:38.686Z,12.80
2017-10-11T04:05:05.139Z,13.07
2017-10-11T04:07:31.554Z,12.73
2017-10-11T04:09:57.990Z,13.50
2017-10-11T04:12:24.386Z,14.27
2017-10-11T04:14:51.628Z,13.17
2017-10-11T04:17:18.112Z,13.20
2017-10-11T04:19:44.548Z,12.53
2017-10-11T04:22:10.982Z,13.30
2017-10-11T04:24:37.418Z,13.70
2017-10-11T04:27:03.854Z,12.90
2017-10-11T04:29:30.292Z,13.30
2017-10-11T04:31:57.438Z,13.50
2017-10-11T04:34:23.877Z,12.07
2017-10-11T04:36:50.308Z,12.50
2017-10-11T04:39:16.743Z,12.57
2017-10-11T04:41:43.179Z,14.50
2017-10-11T04:44:09.632Z,14.23
2017-10-11T04:46:36.049Z,13.70
2017-10-11T04:49:03.322Z,14.10
2017-10-11T04:51:29.737Z,14.17
2017-10-11T04:53:56.171Z,14.40
2017-10-11T04:56:22.556Z,13.53
2017-10-11T04:58:49.040Z,12.90
2017-10-11T05:01:15.482Z,14.03
2017-10-11T05:03:42.015Z,14.53
2017-10-11T05:06:08.808Z,12.97
2017-10-11T05:08:35.704Z,13.70
2017-10-11T05:11:02.404Z,13.40
2017-10-11T05:13:28.877Z,14.40
2017-10-11T05:15:55.312Z,16.90
2017-10-11T05:18:22.262Z,19.20
2017-10-11T05:20:48.797Z,18.37
2017-10-11T05:23:15.232Z,18.97
2017-10-11T05:25:41.608Z,16.57
2017-10-11T05:28:08.511Z,16.60
2017-10-11T05:30:35.042Z,14.67
2017-10-11T05:33:01.400Z,16.17
2017-10-11T05:35:27.922Z,15.33
2017-10-11T05:37:54.352Z,11.27
2017-10-11T05:40:20.786Z,10.90
2017-10-11T05:42:47.172Z,11.00
2017-10-11T05:45:13.520Z,11.50
2017-10-11T05:47:39.939Z,11.80
2017-10-11T05:50:06.535Z,12.53
2017-10-11T05:52:32.967Z,11.73
2017-10-11T05:54:59.395Z,12.83
2017-10-11T05:57:26.031Z,13.10
2017-10-11T05:59:52.469Z,11.60
2017-10-11T06:02:19.211Z,11.03
2017-10-11T06:04:45.751Z,10.50
2017-10-11T06:07:12.185Z,10.23
2017-10-11T06:09:38.825Z,11.10
2017-10-11T06:12:05.364Z,12.10
2017-10-11T06:14:31.898Z,12.30
2017-10-11T06:16:59.308Z,11.40
2017-10-11T06:19:25.890Z,13.87
2017-10-11T06:21:52.331Z,12.53
2017-10-11T06:24:19.253Z,13.33
2017-10-11T06:26:45.735Z,13.00
2017-10-11T06:29:12.350Z,12.53
2017-10-11T06:31:38.886Z,13.20
2017-10-11T06:34:05.321Z,12.93
2017-10-11T06:36:31.913Z,12.87
2017-10-11T06:38:58.406Z,13.17
2017-10-11T06:41:25.026Z,13.93
2017-10-11T06:43:51.469Z,12.30
2017-10-11T06:46:18.161Z,12.53
2017-10-11T06:48:44.649Z,12.60
2017-10-11T06:51:11.243Z,13.40
2017-10-11T06:53:38.330Z,13.87
2017-10-11T06:56:04.769Z,12.97
2017-10-11T06:58:31.204Z,12.80
2017-10-11T07:00:57.741Z,11.73
2017-10-11T07:03:24.175Z,10.63
2017-10-11T07:05:50.717Z,11.60
2017-10-11T07:08:17.551Z,11.60
2017-10-11T07:10:43.936Z,12.37
2017-10-11T07:13:10.324Z,12.17
2017-10-11T07:15:36.672Z,11.87
2017-10-11T07:18:03.092Z,12.63
2017-10-11T07:20:29.734Z,12.80
2017-10-11T07:22:56.784Z,13.13
2017-10-11T07:25:23.530Z,14.00
2017-10-11T07:27:49.911Z,12.57
2017-10-11T07:30:16.392Z,12.47
2017-10-11T07:32:43.434Z,12.57
2017-10-11T07:35:09.877Z,13.07
2017-10-11T07:37:36.298Z,13.20
2017-10-11T07:40:03.054Z,12.40
2017-10-11T07:42:29.592Z,13.27
2017-10-11T07:44:55.979Z,13.20
2017-10-11T07:47:23.896Z,13.40
2017-10-11T07:49:50.329Z,13.73
2017-10-11T07:52:16.864Z,13.37
2017-10-11T07:54:43.299Z,13.83
2017-10-11T07:57:09.838Z,13.70
2017-10-11T07:59:36.275Z,13.40
2017-10-11T08:02:02.844Z,13.20
2017-10-11T08:04:29.346Z,12.97
2017-10-11T08:06:55.883Z,13.40
2017-10-11T08:09:22.771Z,13.00
2017-10-11T08:11:49.367Z,12.60
2017-10-11T08:14:15.881Z,12.70
2017-10-11T08:16:42.646Z,12.30
2017-10-11T08:19:09.183Z,13.13
2017-10-11T08:21:35.721Z,12.80
2017-10-11T08:24:02.564Z,13.80
2017-10-11T08:26:29.102Z,12.93
2017-10-11T08:28:55.639Z,12.43
2017-10-11T08:31:22.279Z,13.20
2017-10-11T08:33:48.997Z,13.00
2017-10-11T08:36:15.456Z,13.03
2017-10-11T08:38:42.081Z,12.07
2017-10-11T08:41:09.392Z,12.00
2017-10-11T08:43:35.942Z,12.90
2017-10-11T08:46:02.525Z,11.63
2017-10-11T08:48:29.371Z,11.67
2017-10-11T08:50:55.961Z,12.87
2017-10-11T08:53:22.784Z,10.43
2017-10-11T08:55:49.698Z,11.03
2017-10-11T08:58:16.337Z,9.50
2017-10-11T09:00:43.081Z,10.30
2017-10-11T09:03:09.610Z,10.97
2017-10-11T09:05:36.252Z,10.00
2017-10-11T09:08:03.193Z,9.70
2017-10-11T09:10:29.946Z,9.50
2017-10-11T09:12:56.708Z,9.40
2017-10-11T09:15:23.421Z,10.03
2017-10-11T09:17:49.865Z,9.73
2017-10-11T09:20:16.400Z,9.13
2017-10-11T09:22:43.553Z,10.30
2017-10-11T09:25:09.969Z,10.63
2017-10-11T09:27:36.531Z,9.50
2017-10-11T09:30:03.352Z,9.70
2017-10-11T09:32:29.907Z,9.77
2017-10-11T09:34:56.571Z,9.63
2017-10-11T09:37:23.779Z,9.50
2017-10-11T09:39:50.445Z,8.83
2017-10-11T09:42:17.389Z,8.97
2017-10-11T09:44:43.823Z,10.00
2017-10-11T09:47:10.434Z,10.47
2017-10-11T09:49:37.105Z,10.50
2017-10-11T09:52:04.383Z,10.43
2017-10-11T09:54:31.199Z,10.00
2017-10-11T09:56:58.027Z,10.30
2017-10-11T09:59:25.194Z,9.80
2017-10-11T10:01:51.836Z,10.00
2017-10-11T10:04:21.342Z,10.43
2017-10-11T10:06:48.352Z,9.90
2017-10-11T10:09:14.928Z,9.67
2017-10-11T10:11:41.464Z,11.00
2017-10-11T10:14:08.103Z,9.60
2017-10-11T10:16:35.479Z,9.40
2017-10-11T10:19:03.431Z,8.80
2017-10-11T10:21:30.653Z,9.50
2017-10-11T10:23:57.344Z,10.10
2017-10-11T10:26:24.474Z,10.00
2017-10-11T10:28:51.328Z,10.20
2017-10-11T10:31:18.273Z,9.97
2017-10-11T10:33:44.846Z,10.20
2017-10-11T10:36:12.169Z,10.60
2017-10-11T10:38:40.457Z,9.73
2017-10-11T10:41:08.465Z,8.20
2017-10-11T10:43:35.665Z,8.93
2017-10-11T10:46:02.099Z,10.40
2017-10-11T10:48:28.640Z,9.20
2017-10-11T10:51:02.188Z,10.57
2017-10-11T10:53:29.275Z,8.50
2017-10-11T10:55:56.135Z,9.10
2017-10-11T10:58:22.772Z,8.90
2017-10-11T11:00:49.617Z,9.63
2017-10-11T11:03:16.154Z,8.77
2017-10-11T11:05:42.800Z,8.90
2017-10-11T11:08:09.595Z,8.27
2017-10-11T11:10:36.129Z,7.77
2017-10-11T11:13:02.714Z,7.27
2017-10-11T11:15:29.147Z,6.47
2017-10-11T11:17:55.559Z,6.00
2017-10-11T11:20:21.930Z,6.10
2017-10-11T11:22:48.840Z,5.53
2017-10-11T11:25:15.284Z,5.50
2017-10-11T11:27:41.733Z,6.33
2017-10-11T11:30:08.372Z,5.83
2017-10-11T11:32:34.907Z,6.03
2017-10-11T11:35:01.344Z,5.83
2017-10-11T11:37:27.778Z,5.40
2017-10-11T11:39:54.212Z,4.90
2017-10-11T11:42:21.363Z,4.57
2017-10-11T11:44:47.798Z,5.23
2017-10-11T11:47:14.293Z,4.93
2017-10-11T11:49:40.671Z,4.73
2017-10-11T11:52:08.441Z,4.90
2017-10-11T11:54:34.929Z,5.00
2017-10-11T11:57:01.406Z,4.33
2017-10-11T11:59:28.353Z,4.80
2017-10-11T12:01:54.891Z,4.90
2017-10-11T12:04:21.324Z,4.87
2017-10-11T12:06:47.777Z,4.73
2017-10-11T12:09:14.773Z,5.20
2017-10-11T12:11:42.369Z,4.70
2017-10-11T12:14:08.753Z,4.80
2017-10-11T12:16:35.225Z,4.57
2017-10-11T12:19:01.673Z,4.70
2017-10-11T12:21:28.199Z,4.60
2017-10-11T12:23:54.645Z,4.53
2017-10-11T12:26:21.079Z,4.53
2017-10-11T12:28:47.516Z,4.57
2017-10-11T12:31:14.006Z,3.70
2017-10-11T12:33:40.487Z,5.00
2017-10-11T12:36:06.921Z,4.90
2017-10-11T12:38:34.587Z,4.57
2017-10-11T12:41:01.155Z,3.97
2017-10-11T12:43:27.760Z,4.20
2017-10-11T12:45:54.167Z,4.27
2017-10-11T12:48:21.041Z,4.20
2017-10-11T12:50:47.476Z,4.23
2017-10-11T12:53:14.321Z,4.63
2017-10-11T12:55:40.758Z,4.50
2017-10-11T12:58:07.189Z,4.13
2017-10-11T13:00:34.136Z,4.40
2017-10-11T13:03:00.695Z,4.50
2017-10-11T13:05:27.199Z,4.50
2017-10-11T13:07:53.957Z,4.57
2017-10-11T13:10:20.389Z,4.83
2017-10-11T13:12:47.950Z,4.70
2017-10-11T13:15:15.000Z,5.03
2017-10-11T13:17:41.415Z,4.47
2017-10-11T13:20:07.790Z,4.73
2017-10-11T13:22:34.603Z,4.60
2017-10-11T13:25:01.044Z,4.80
2017-10-11T13:27:27.462Z,5.20
2017-10-11T13:29:53.906Z,5.40
2017-10-11T13:32:20.451Z,5.10
2017-10-11T13:34:47.398Z,5.23
2017-10-11T13:37:13.832Z,5.20
2017-10-11T13:39:40.268Z,5.00
2017-10-11T13:42:07.521Z,5.10
2017-10-11T13:44:34.009Z,5.10
2017-10-11T13:47:00.601Z,5.17
2017-10-11T13:49:27.440Z,5.50
2017-10-11T13:51:54.052Z,5.97
2017-10-11T13:54:20.606Z,5.10
2017-10-11T13:56:47.507Z,4.83
2017-10-11T13:59:14.614Z,5.43
2017-10-11T14:01:41.456Z,5.83
2017-10-11T14:04:07.950Z,5.40
2017-10-11T14:06:34.428Z,5.53
2017-10-11T14:09:00.863Z,5.67
2017-10-11T14:11:27.298Z,4.80
2017-10-11T14:13:53.732Z,5.23
2017-10-11T14:16:21.194Z,5.20
2017-10-11T14:18:48.815Z,5.27
2017-10-11T14:21:15.501Z,5.30
2017-10-11T14:23:41.936Z,4.93
2017-10-11T14:26:08.430Z,4.80
2017-10-11T14:28:35.916Z,6.20
2017-10-11T14:31:04.146Z,5.50
2017-10-11T14:33:31.509Z,5.67
2017-10-11T14:35:57.949Z,5.67
2017-10-11T14:38:24.737Z,5.47
2017-10-11T14:40:51.179Z,5.60
2017-10-11T14:43:18.177Z,5.73
2017-10-11T14:45:44.662Z,6.47
2017-10-11T14:48:11.300Z,6.03
2017-10-11T14:50:37.731Z,5.80
2017-10-11T14:53:04.085Z,6.00
2017-10-11T14:55:31.011Z,5.83
2017-10-11T14:57:57.396Z,5.80
2017-10-11T15:00:23.880Z,6.10
2017-10-11T15:02:50.493Z,6.43
2017-10-11T15:05:16.952Z,6.20
2017-10-11T15:07:43.389Z,6.80
2017-10-11T15:10:10.130Z,5.63
2017-10-11T15:12:36.667Z,9.80
2017-10-11T15:15:03.102Z,7.17
2017-10-11T15:17:29.537Z,6.87
2017-10-11T15:19:56.074Z,7.37
2017-10-11T15:22:22.508Z,8.47
2017-10-11T15:24:48.897Z,9.10
2017-10-11T15:27:15.378Z,8.20
2017-10-11T15:29:41.812Z,9.03
2017-10-11T15:32:08.249Z,9.47
2017-10-11T15:34:34.718Z,9.10
2017-10-11T15:37:01.095Z,11.60
2017-10-11T15:39:28.262Z,12.50
2017-10-11T15:41:54.710Z,11.50
2017-10-11T15:44:21.124Z,11.33
2017-10-11T15:46:47.573Z,10.97
2017-10-11T15:49:14.008Z,10.43
2017-10-11T15:51:40.442Z,9.90
2017-10-11T15:54:06.883Z,10.30
2017-10-11T15:56:33.270Z,9.60
2017-10-11T15:58:59.770Z,8.87
2017-10-11T16:01:26.182Z,9.07
2017-10-11T16:03:52.616Z,8.97
2017-10-11T16:06:19.051Z,10.23
2017-10-11T16:08:45.436Z,9.83
2017-10-11T16:11:11.895Z,10.70
2017-10-11T16:13:38.335Z,10.20
2017-10-11T16:16:04.778Z,11.87
2017-10-11T16:18:31.327Z,11.17
2017-10-11T16:20:57.716Z,12.20
2017-10-11T16:23:24.197Z,12.03
2017-10-11T16:25:50.632Z,9.53
2017-10-11T16:28:17.023Z,9.47
2017-10-11T16:30:43.501Z,9.30
2017-10-11T16:33:09.939Z,11.27
2017-10-11T16:35:36.382Z,9.90
2017-10-11T16:38:03.610Z,9.70
2017-10-11T16:40:30.061Z,10.00
2017-10-11T16:42:56.598Z,9.77
2017-10-11T16:45:23.032Z,9.63
2017-10-11T16:47:49.466Z,10.27
2017-10-11T16:50:15.856Z,10.80
2017-10-11T16:52:42.319Z,11.10
2017-10-11T16:55:09.485Z,10.20
2017-10-11T16:57:35.942Z,10.93
2017-10-11T17:00:02.357Z,11.47
2017-10-11T17:02:28.794Z,11.73
2017-10-11T17:04:55.179Z,11.97
2017-10-11T17:07:21.662Z,12.60
2017-10-11T17:09:48.096Z,12.20
2017-10-11T17:12:15.247Z,13.37
2017-10-11T17:14:41.685Z,13.50
2017-10-11T17:17:08.139Z,12.57
2017-10-11T17:19:34.552Z,12.07
2017-10-11T17:22:01.102Z,13.17
2017-10-11T17:24:27.526Z,13.50
2017-10-11T17:26:53.960Z,15.77
2017-10-11T17:29:21.110Z,16.00
2017-10-11T17:31:47.546Z,14.30
2017-10-11T17:34:13.949Z,14.20
2017-10-11T17:36:40.408Z,13.60
2017-10-11T17:39:06.851Z,14.00
2017-10-11T17:41:33.283Z,13.80
2017-10-11T17:43:59.672Z,13.77
2017-10-11T17:46:26.802Z,13.93
2017-10-11T17:48:53.306Z,13.43
2017-10-11T17:51:19.742Z,11.60
2017-10-11T17:53:46.175Z,13.17
2017-10-11T17:56:12.712Z,12.37
2017-10-11T17:58:39.149Z,12.37
2017-10-11T18:01:05.582Z,12.53
2017-10-11T18:03:32.852Z,12.30
2017-10-11T18:05:59.274Z,11.83
2017-10-11T18:08:25.662Z,11.37
2017-10-11T18:10:52.128Z,12.03
2017-10-11T18:13:18.571Z,11.63
2017-10-11T18:15:45.011Z,10.80
2017-10-11T18:18:11.444Z,11.93
2017-10-11T18:20:38.589Z,12.43
2017-10-11T18:23:05.031Z,12.33
2017-10-11T18:25:31.465Z,11.90
2017-10-11T18:27:57.901Z,12.20
2017-10-11T18:30:24.335Z,12.47
2017-10-11T18:32:50.770Z,11.87
2017-10-11T18:35:17.204Z,11.67
2017-10-11T18:37:44.357Z,11.60
2017-10-11T18:40:10.810Z,12.03
2017-10-11T18:42:37.225Z,13.30
2017-10-11T18:45:03.660Z,13.70
2017-10-11T18:47:30.094Z,15.40
2017-10-11T18:49:56.530Z,13.67
2017-10-11T18:52:22.964Z,13.73
2017-10-11T18:54:50.220Z,13.87
2017-10-11T18:57:16.612Z,14.63
2017-10-11T18:59:43.089Z,13.37
2017-10-11T19:02:09.524Z,13.70
2017-10-11T19:04:35.959Z,14.27
2017-10-11T19:07:02.393Z,14.83
2017-10-11T19:09:28.828Z,15.70
2017-10-11T19:11:56.083Z,14.20
2017-10-11T19:14:22.516Z,14.23
2017-10-11T19:16:48.903Z,13.67
2017-10-11T19:19:15.385Z,12.60
2017-10-11T19:21:41.820Z,14.30
2017-10-11T19:24:08.208Z,13.80
2017-10-11T19:26:34.689Z,17.47
2017-10-11T19:29:01.841Z,17.20
2017-10-11T19:31:28.275Z,16.80
2017-10-11T19:33:54.643Z,15.73
2017-10-11T19:36:21.145Z,15.20
2017-10-11T19:38:47.579Z,15.43
2017-10-11T19:41:13.969Z,16.20
2017-10-11T19:43:40.451Z,16.33
2017-10-11T19:46:07.705Z,16.40
2017-10-11T19:48:34.140Z,16.93
2017-10-11T19:51:00.575Z,15.80
2017-10-11T19:53:27.007Z,17.97
2017-10-11T19:55:53.443Z,16.00
2017-10-11T19:58:19.878Z,16.13
2017-10-11T20:00:46.312Z,14.67
2017-10-11T20:03:13.463Z,15.70
2017-10-11T20:05:39.898Z,14.90
2017-10-11T20:08:06.334Z,15.57
2017-10-11T20:10:32.769Z,15.47
2017-10-11T20:12:59.203Z,15.10
2017-10-11T20:15:25.637Z,15.40
2017-10-11T20:17:52.094Z,16.37
2017-10-11T20:20:19.227Z,15.20
2017-10-11T20:22:45.660Z,16.00
2017-10-11T20:25:12.043Z,17.00
2017-10-11T20:27:38.530Z,14.23
2017-10-11T20:30:04.963Z,16.33
2017-10-11T20:32:31.398Z,15.33
2017-10-11T20:34:57.829Z,14.57
2017-10-11T20:37:24.946Z,16.53
2017-10-11T20:39:51.414Z,15.83
2017-10-11T20:42:17.853Z,16.43
2017-10-11T20:44:44.289Z,17.80
2017-10-11T20:47:10.755Z,14.83
2017-10-11T20:49:37.265Z,15.90
2017-10-11T20:52:03.675Z,16.97
2017-10-11T20:54:30.949Z,16.63
2017-10-11T20:56:57.384Z,16.13
2017-10-11T20:59:23.819Z,16.17
2017-10-11T21:01:50.254Z,18.10
2017-10-11T21:04:16.688Z,16.47
2017-10-11T21:06:43.124Z,17.53
2017-10-11T21:09:09.557Z,17.67
2017-10-11T21:11:36.813Z,15.20
2017-10-11T21:14:03.350Z,16.47
2017-10-11T21:16:29.873Z,15.97
2017-10-11T21:18:56.320Z,17.50
2017-10-11T21:21:22.756Z,17.20
2017-10-11T21:23:49.193Z,17.27
2017-10-11T21:26:15.626Z,15.83
2017-10-11T21:28:42.798Z,16.17
2017-10-11T21:31:09.212Z,17.10
2017-10-11T21:33:35.647Z,17.47
2017-10-11T21:36:02.085Z,17.13
2017-10-11T21:38:28.503Z,18.53
2017-10-11T21:40:54.951Z,18.40
2017-10-11T21:43:21.386Z,16.83
2017-10-11T21:45:48.639Z,17.63
2017-10-11T21:48:15.074Z,16.33
2017-10-11T21:50:41.509Z,17.93
2017-10-11T21:53:07.964Z,16.90
2017-10-11T21:55:34.382Z,18.10
2017-10-11T21:58:00.816Z,15.67
2017-10-11T22:00:27.335Z,18.17
2017-10-11T22:02:54.478Z,18.10
2017-10-11T22:05:20.940Z,19.37
2017-10-11T22:07:47.372Z,19.57
2017-10-11T22:10:13.809Z,17.80
2017-10-11T22:12:40.295Z,17.50
2017-10-11T22:15:06.780Z,18.40
2017-10-11T22:17:33.214Z,17.83
2017-10-11T22:20:00.470Z,18.17
2017-10-11T22:22:26.902Z,19.57
2017-10-11T22:24:53.439Z,19.00
2017-10-11T22:27:19.875Z,18.00
2017-10-11T22:29:46.309Z,18.20
2017-10-11T22:32:12.744Z,18.83
2017-10-11T22:34:39.209Z,18.23
2017-10-11T22:37:06.273Z,17.63
2017-10-11T22:39:32.663Z,17.87
2017-10-11T22:41:59.098Z,17.70
2017-10-11T22:44:25.533Z,18.30
2017-10-11T22:46:51.991Z,17.93
2017-10-11T22:49:18.506Z,18.53
2017-10-11T22:51:44.939Z,18.80
2017-10-11T22:54:12.091Z,17.10
2017-10-11T22:56:38.475Z,17.47
2017-10-11T22:59:04.857Z,18.73
2017-10-11T23:01:31.317Z,17.90
2017-10-11T23:03:57.729Z,18.40
2017-10-11T23:06:24.109Z,17.13
2017-10-11T23:08:50.548Z,18.20
2017-10-11T23:11:17.741Z,18.47
2017-10-11T23:13:44.184Z,17.67
2017-10-11T23:16:10.576Z,19.47
2017-10-11T23:18:37.004Z,18.07
2017-10-11T23:21:03.451Z,17.83
2017-10-11T23:23:29.924Z,17.43
2017-10-11T23:25:56.357Z,17.27
2017-10-11T23:28:23.611Z,18.10
2017-10-11T23:30:50.046Z,17.13
2017-10-11T23:33:16.481Z,17.33
2017-10-11T23:35:42.918Z,16.40
2017-10-11T23:38:09.350Z,17.40
2017-10-11T23:40:35.786Z,16.83
2017-10-11T23:43:02.220Z,18.00
2017-10-11T23:45:29.473Z,17.40
2017-10-11T23:47:55.964Z,17.50
2017-10-11T23:50:22.445Z,16.97
2017-10-11T23:52:48.882Z,15.77
2017-10-11T23:55:15.418Z,16.77
2017-10-11T23:57:41.872Z,16.10
